Time;durP1;ratioP1;P1;durP2;ratioP2;P2;SDS_P1;SDS_P2;PMS_P1;PMS_P2;Temp;Humidity;BMP_temperature;BMP_pressure;BME280_temperature;BME280_humidity;BME280_pressure;Samples;Min_cycle;Max_cycle;Signal;HPM_P1;HPM_P2
2024/03/19 00:00:43;;;;;;;4.93;2.17;;;4.30;94.00;;;;;;5019126;28;20061;-75
2024/03/19 00:03:11;;;;;;;4.15;2.10;;;4.30;94.00;;;;;;5022891;28;20385;-76
2024/03/19 00:05:38;;;;;;;6.93;2.70;;;4.20;94.20;;;;;;5006461;28;20057;-73
2024/03/19 00:08:07;;;;;;;7.80;2.17;;;4.80;94.50;;;;;;5023437;28;20037;-74
2024/03/19 00:10:35;;;;;;;3.78;1.73;;;4.20;94.20;;;;;;5022806;28;20045;-75
2024/03/19 00:13:02;;;;;;;3.88;1.73;;;4.20;94.20;;;;;;5024971;28;20049;-74
2024/03/19 00:15:29;;;;;;;6.57;2.47;;;4.30;94.20;;;;;;5037842;28;20034;-74
2024/03/19 00:17:57;;;;;;;6.88;2.05;;;4.20;94.20;;;;;;5004507;28;20053;-75
2024/03/19 00:20:24;;;;;;;5.78;2.17;;;4.30;94.20;;;;;;5007866;28;20041;-74
2024/03/19 00:22:52;;;;;;;4.57;1.73;;;4.30;93.80;;;;;;5022211;28;20037;-76
2024/03/19 00:25:24;;;;;;;5.00;1.92;;;4.30;94.10;;;;;;5019093;28;20505;-75
2024/03/19 00:27:52;;;;;;;4.20;1.93;;;4.30;93.90;;;;;;5019164;28;20077;-75
2024/03/19 00:30:20;;;;;;;4.65;1.77;;;4.30;94.20;;;;;;5022341;28;20069;-73
2024/03/19 00:32:47;;;;;;;5.40;2.05;;;4.40;93.90;;;;;;5022433;28;20033;-75
2024/03/19 00:35:14;;;;;;;5.68;2.10;;;4.50;93.90;;;;;;5019875;28;20049;-76
2024/03/19 00:37:42;;;;;;;5.18;1.67;;;4.50;93.90;;;;;;5021532;28;20096;-74
2024/03/19 00:40:11;;;;;;;6.15;2.05;;;4.50;94.20;;;;;;5001390;28;20050;-74
2024/03/19 00:42:41;;;;;;;5.32;2.00;;;4.40;93.60;;;;;;5003217;28;20093;-75
2024/03/19 00:45:09;;;;;;;5.07;1.90;;;4.40;93.80;;;;;;5021301;28;20046;-74
2024/03/19 00:47:37;;;;;;;5.68;2.28;;;4.50;93.70;;;;;;5004482;28;20089;-75
2024/03/19 00:50:06;;;;;;;6.30;2.00;;;4.60;93.80;;;;;;5033983;28;20044;-74
2024/03/19 00:52:34;;;;;;;4.30;1.77;;;4.70;93.70;;;;;;5008585;28;20401;-74
2024/03/19 00:55:04;;;;;;;4.93;1.83;;;4.70;93.50;;;;;;4988652;28;20508;-74
2024/03/19 00:57:32;;;;;;;5.97;2.08;;;4.70;93.60;;;;;;5007624;28;20045;-74
2024/03/19 01:00:01;;;;;;;5.53;2.10;;;4.70;94.00;;;;;;5027348;28;22929;-75
2024/03/19 01:02:37;;;;;;;7.43;2.67;;;4.60;93.50;;;;;;5005417;28;20041;-74
2024/03/19 01:05:08;;;;;;;3.35;1.55;;;4.60;93.20;;;;;;5036359;28;20033;-76
2024/03/19 01:07:37;;;;;;;4.53;1.88;;;4.50;93.50;;;;;;5030049;28;20376;-78
2024/03/19 01:10:04;;;;;;;4.97;1.85;;;4.50;93.40;;;;;;5008928;28;20052;-77
2024/03/19 01:12:31;;;;;;;5.47;2.08;;;4.60;93.30;;;;;;5027173;28;20048;-80
2024/03/19 01:15:00;;;;;;;5.38;2.22;;;4.50;93.10;;;;;;5028214;28;20060;-78
2024/03/19 01:17:28;;;;;;;6.07;2.45;;;4.50;93.20;;;;;;5023110;28;20041;-78
2024/03/19 01:19:54;;;;;;;8.02;2.00;;;4.50;93.00;;;;;;5026635;28;20037;-79
2024/03/19 01:22:21;;;;;;;5.93;2.22;;;4.50;93.10;;;;;;5028792;28;20048;-78
2024/03/19 01:24:50;;;;;;;6.47;2.50;;;4.40;93.00;;;;;;5011898;28;20045;-76
2024/03/19 01:27:18;;;;;;;5.15;2.13;;;4.50;93.20;;;;;;5014135;28;20056;-77
2024/03/19 01:29:46;;;;;;;4.90;1.90;;;4.30;93.10;;;;;;5014964;28;20060;-79
2024/03/19 01:32:15;;;;;;;4.75;1.65;;;4.40;93.10;;;;;;5024877;28;20082;-78
2024/03/19 01:34:43;;;;;;;3.63;1.73;;;4.40;93.30;;;;;;5025976;28;20049;-76
2024/03/19 01:37:10;;;;;;;5.25;1.98;;;4.50;93.00;;;;;;5030534;28;20078;-78
2024/03/19 01:39:38;;;;;;;7.28;2.38;;;4.40;92.70;;;;;;5024690;28;20048;-76
2024/03/19 01:42:06;;;;;;;4.90;1.90;;;4.50;92.70;;;;;;5011248;28;20143;-79
2024/03/19 01:44:33;;;;;;;5.47;1.70;;;4.50;92.90;;;;;;5028048;28;20039;-79
2024/03/19 01:47:01;;;;;;;4.40;1.77;;;4.60;93.20;;;;;;5022297;28;20195;-78
2024/03/19 01:49:31;;;;;;;4.57;1.55;;;4.60;92.60;;;;;;5038804;28;20512;-79
2024/03/19 01:52:00;;;;;;;5.22;1.95;;;4.50;92.60;;;;;;5031385;28;20471;-78
2024/03/19 01:54:30;;;;;;;4.82;1.70;;;4.40;92.50;;;;;;5012127;28;20088;-78
2024/03/19 01:56:58;;;;;;;4.50;2.03;;;4.40;92.50;;;;;;5027713;28;20033;-78
2024/03/19 01:59:25;;;;;;;3.92;1.60;;;4.30;92.50;;;;;;5009068;28;20405;-79
2024/03/19 02:01:53;;;;;;;6.75;2.20;;;4.40;92.70;;;;;;5020898;28;20102;-78
2024/03/19 02:04:21;;;;;;;4.68;1.65;;;4.30;92.70;;;;;;5028325;28;20424;-79
2024/03/19 02:06:51;;;;;;;5.35;2.40;;;4.40;92.80;;;;;;5031226;28;20040;-78
2024/03/19 02:09:19;;;;;;;4.90;1.90;;;4.40;92.70;;;;;;5028634;28;20060;-78
2024/03/19 02:11:46;;;;;;;3.20;1.60;;;4.30;92.60;;;;;;5012939;28;20037;-78
2024/03/19 02:14:15;;;;;;;5.53;1.83;;;4.20;92.60;;;;;;5023312;28;20052;-78
2024/03/19 02:16:42;;;;;;;7.10;1.95;;;4.20;92.70;;;;;;5011699;28;20037;-79
2024/03/19 02:19:10;;;;;;;4.07;1.55;;;4.30;92.80;;;;;;5024574;28;20083;-79
2024/03/19 02:21:38;;;;;;;5.15;1.98;;;4.30;92.80;;;;;;5006187;28;20519;-78
2024/03/19 02:24:07;;;;;;;4.88;1.45;;;4.30;92.70;;;;;;5016136;28;20124;-78
2024/03/19 02:26:35;;;;;;;5.25;2.00;;;4.30;92.70;;;;;;5013014;28;20152;-79
2024/03/19 02:29:03;;;;;;;6.05;2.55;;;4.40;92.90;;;;;;5028912;28;20037;-79
2024/03/19 02:31:30;;;;;;;3.78;1.67;;;4.30;92.70;;;;;;5026201;28;20071;-78
2024/03/19 02:33:59;;;;;;;4.57;1.85;;;4.30;92.50;;;;;;5011637;28;20095;-79
2024/03/19 02:36:27;;;;;;;5.45;1.77;;;4.30;92.70;;;;;;5030254;28;20052;-79
2024/03/19 02:38:56;;;;;;;5.03;1.90;;;4.30;92.50;;;;;;5009016;28;20042;-78
2024/03/19 02:41:25;;;;;;;6.10;1.83;;;4.30;92.60;;;;;;5009887;28;20053;-78
2024/03/19 02:43:52;;;;;;;4.13;1.60;;;4.40;92.70;;;;;;5028225;28;20193;-78
2024/03/19 02:46:20;;;;;;;5.95;2.00;;;4.40;92.70;;;;;;5026746;28;20083;-78
2024/03/19 02:48:49;;;;;;;5.88;1.77;;;4.40;93.10;;;;;;5026104;28;20048;-78
2024/03/19 02:51:16;;;;;;;5.70;2.15;;;4.40;93.20;;;;;;5011713;28;20156;-77
2024/03/19 02:53:44;;;;;;;5.60;1.90;;;4.40;92.90;;;;;;5010456;28;20588;-79
2024/03/19 02:56:12;;;;;;;7.57;2.92;;;4.40;92.80;;;;;;5012625;28;20057;-79
2024/03/19 02:58:41;;;;;;;8.90;3.50;;;4.40;93.30;;;;;;5013791;28;20037;-79
2024/03/19 03:01:09;;;;;;;10.40;3.80;;;4.30;93.00;;;;;;5023584;28;20041;-78
2024/03/19 03:03:37;;;;;;;7.80;3.00;;;4.30;92.80;;;;;;5022332;28;20045;-79
2024/03/19 03:06:05;;;;;;;9.15;3.22;;;4.30;93.00;;;;;;5018679;28;20057;-79
2024/03/19 03:08:33;;;;;;;8.07;2.50;;;4.30;93.10;;;;;;5026920;28;20373;-79
2024/03/19 03:11:00;;;;;;;5.32;2.50;;;4.30;93.10;;;;;;5008192;28;20056;-79
2024/03/19 03:13:28;;;;;;;5.63;3.00;;;4.30;92.90;;;;;;5033087;28;20083;-79
2024/03/19 03:15:57;;;;;;;4.93;2.13;;;4.30;93.20;;;;;;5023766;28;20046;-79
2024/03/19 03:18:24;;;;;;;4.00;1.85;;;4.30;93.30;;;;;;5022066;28;20037;-78
2024/03/19 03:20:52;;;;;;;5.80;2.30;;;4.30;93.40;;;;;;5025174;28;20076;-79
2024/03/19 03:23:19;;;;;;;4.07;1.77;;;4.30;93.40;;;;;;5026270;28;20083;-79
2024/03/19 03:25:47;;;;;;;4.30;1.88;;;4.30;93.20;;;;;;5009258;28;20073;-79
2024/03/19 03:28:16;;;;;;;4.88;2.03;;;4.20;93.20;;;;;;5011211;28;20083;-79
2024/03/19 03:30:43;;;;;;;5.70;2.17;;;4.20;93.30;;;;;;5013276;28;20049;-78
2024/03/19 03:33:12;;;;;;;5.40;1.80;;;4.10;93.10;;;;;;5035308;28;20033;-78
2024/03/19 03:35:39;;;;;;;6.93;2.35;;;4.20;93.30;;;;;;5013762;28;20045;-79
2024/03/19 03:38:07;;;;;;;6.88;2.80;;;4.20;93.50;;;;;;5015320;28;20044;-79
2024/03/19 03:40:34;;;;;;;9.10;3.13;;;4.20;93.20;;;;;;5028107;28;20049;-79
2024/03/19 03:43:01;;;;;;;7.03;3.38;;;4.20;93.40;;;;;;5030785;28;20044;-79
2024/03/19 03:45:29;;;;;;;6.03;2.30;;;4.20;93.70;;;;;;5034078;28;20575;-78
2024/03/19 03:47:56;;;;;;;5.68;2.15;;;4.20;93.60;;;;;;5017149;28;20053;-78
2024/03/19 03:50:25;;;;;;;7.03;2.00;;;4.20;93.70;;;;;;5032345;28;20102;-78
2024/03/19 03:52:53;;;;;;;6.05;2.58;;;4.20;94.00;;;;;;5027249;28;20052;-79
2024/03/19 03:55:20;;;;;;;8.60;2.72;;;4.20;93.80;;;;;;5033778;28;20041;-78
2024/03/19 03:57:48;;;;;;;6.68;2.35;;;4.20;93.90;;;;;;5028887;28;20515;-77
2024/03/19 04:00:17;;;;;;;5.65;2.00;;;4.20;93.70;;;;;;5017753;28;20037;-78
2024/03/19 04:02:46;;;;;;;4.78;2.15;;;4.20;93.60;;;;;;5030489;28;20045;-78
2024/03/19 04:05:14;;;;;;;4.25;2.20;;;4.20;94.00;;;;;;5016684;28;20446;-79
2024/03/19 04:07:44;;;;;;;8.15;2.88;;;4.10;93.70;;;;;;5018700;28;20454;-79
2024/03/19 04:10:14;;;;;;;5.78;2.50;;;4.10;93.90;;;;;;5028405;28;20087;-79
2024/03/19 04:12:42;;;;;;;5.15;2.33;;;4.10;94.00;;;;;;5030407;28;20090;-79
2024/03/19 04:15:11;;;;;;;6.28;1.92;;;4.10;93.80;;;;;;5033691;28;20044;-79
2024/03/19 04:17:39;;;;;;;5.32;2.05;;;4.10;94.10;;;;;;5031042;28;20060;-79
2024/03/19 04:20:11;;;;;;;6.57;2.25;;;4.10;94.00;;;;;;5014013;28;20045;-79
2024/03/19 04:22:38;;;;;;;5.88;2.08;;;4.00;94.00;;;;;;5032915;28;20037;-79
2024/03/19 04:25:08;;;;;;;5.45;2.20;;;4.00;94.10;;;;;;5025507;28;20084;-79
2024/03/19 04:27:36;;;;;;;6.38;2.28;;;4.00;94.40;;;;;;5035815;28;20244;-79
2024/03/19 04:30:05;;;;;;;3.75;1.85;;;4.00;94.40;;;;;;5011930;28;20496;-78
2024/03/19 04:32:32;;;;;;;6.20;2.10;;;4.10;94.90;;;;;;5034098;28;20548;-79
2024/03/19 04:35:00;;;;;;;6.72;2.50;;;4.10;94.80;;;;;;5042935;28;20033;-78
2024/03/19 04:37:28;;;;;;;5.35;2.50;;;4.10;95.10;;;;;;5022993;28;20065;-79
2024/03/19 04:39:56;;;;;;;5.20;2.20;;;4.10;95.10;;;;;;5034660;28;20045;-79
2024/03/19 04:42:25;;;;;;;6.32;2.33;;;4.10;95.30;;;;;;5019089;28;20514;-79
2024/03/19 04:44:52;;;;;;;4.90;1.90;;;4.10;95.20;;;;;;5024868;28;20045;-79
2024/03/19 04:47:19;;;;;;;5.78;2.33;;;4.20;95.20;;;;;;5029668;28;20048;-80
2024/03/19 04:49:47;;;;;;;5.95;2.38;;;4.10;95.70;;;;;;5042280;28;20599;-80
2024/03/19 04:52:14;;;;;;;8.52;2.92;;;4.10;95.30;;;;;;5018645;28;20506;-79
2024/03/19 04:54:42;;;;;;;6.68;2.50;;;4.10;95.50;;;;;;5035584;28;20033;-79
2024/03/19 04:57:10;;;;;;;8.30;2.78;;;4.10;96.10;;;;;;5017711;28;20419;-78
2024/03/19 04:59:39;;;;;;;6.85;2.83;;;4.20;96.10;;;;;;5017266;28;20048;-79
2024/03/19 05:02:07;;;;;;;8.55;3.17;;;4.10;95.70;;;;;;5009607;28;20045;-79
2024/03/19 05:04:34;;;;;;;7.75;3.40;;;4.10;95.60;;;;;;5016174;28;20389;-78
2024/03/19 05:07:02;;;;;;;8.80;2.92;;;4.00;95.30;;;;;;5014013;28;20056;-80
2024/03/19 05:09:30;;;;;;;8.90;4.28;;;3.90;95.50;;;;;;5036928;28;20526;-77
2024/03/19 05:11:57;;;;;;;9.25;3.60;;;4.00;96.20;;;;;;5012029;28;20040;-78
2024/03/19 05:14:25;;;;;;;8.38;4.00;;;4.00;95.80;;;;;;5017305;28;20049;-79
2024/03/19 05:16:53;;;;;;;10.57;4.88;;;3.90;95.60;;;;;;5029065;28;20041;-78
2024/03/19 05:19:21;;;;;;;9.45;3.83;;;4.00;95.70;;;;;;5012733;28;20091;-80
2024/03/19 05:21:49;;;;;;;10.85;4.35;;;3.90;95.60;;;;;;5032042;28;20563;-79
2024/03/19 05:24:16;;;;;;;14.65;5.40;;;4.00;95.80;;;;;;5026379;28;20040;-79
2024/03/19 05:26:44;;;;;;;16.95;7.20;;;4.00;96.10;;;;;;5042842;28;20053;-79
2024/03/19 05:29:11;;;;;;;23.52;9.65;;;4.10;96.30;;;;;;5037471;28;20113;-79
2024/03/19 05:31:39;;;;;;;19.52;9.93;;;4.10;96.40;;;;;;5033924;28;20086;-78
2024/03/19 05:34:07;;;;;;;15.98;7.15;;;4.10;96.40;;;;;;5025558;28;20038;-78
2024/03/19 05:36:35;;;;;;;17.33;8.20;;;4.10;96.20;;;;;;5015988;28;20029;-76
2024/03/19 05:39:08;;;;;;;14.25;5.93;;;4.10;96.20;;;;;;5029267;28;20097;-78
2024/03/19 05:41:36;;;;;;;15.50;4.68;;;4.10;96.30;;;;;;5014801;28;20500;-77
2024/03/19 05:44:05;;;;;;;12.70;4.85;;;4.10;96.00;;;;;;5024108;28;20132;-79
2024/03/19 05:46:32;;;;;;;16.23;5.85;;;4.10;96.10;;;;;;5014473;28;20037;-79
2024/03/19 05:49:00;;;;;;;20.90;6.88;;;4.10;96.40;;;;;;5016073;28;20075;-79
2024/03/19 05:51:30;;;;;;;20.02;6.75;;;4.10;96.40;;;;;;5028016;28;20059;-79
2024/03/19 05:53:58;;;;;;;10.77;4.93;;;4.10;96.40;;;;;;5017083;28;20422;-78
2024/03/19 05:56:26;;;;;;;11.50;3.72;;;4.10;96.30;;;;;;5010920;28;20090;-79
2024/03/19 05:58:53;;;;;;;9.45;3.40;;;4.20;96.10;;;;;;5012025;28;20099;-79
2024/03/19 06:01:20;;;;;;;10.63;3.53;;;4.20;95.90;;;;;;5013187;28;20059;-77
2024/03/19 06:03:48;;;;;;;7.70;3.38;;;4.20;96.10;;;;;;5011134;28;20041;-77
2024/03/19 06:06:15;;;;;;;9.52;3.78;;;4.40;96.10;;;;;;5011394;28;20049;-78
2024/03/19 06:08:44;;;;;;;8.98;3.53;;;4.50;96.20;;;;;;5024622;28;20055;-79
2024/03/19 06:11:12;;;;;;;8.02;3.45;;;4.40;95.70;;;;;;5008346;28;20450;-77
2024/03/19 06:13:39;;;;;;;7.22;3.40;;;4.40;95.50;;;;;;5008292;28;20111;-78
2024/03/19 06:16:07;;;;;;;12.13;4.97;;;4.40;95.50;;;;;;5019800;28;20083;-78
2024/03/19 06:18:35;;;;;;;9.82;4.80;;;4.40;95.40;;;;;;5001541;28;20051;-78
2024/03/19 06:21:02;;;;;;;15.30;4.28;;;4.40;95.40;;;;;;5019316;28;20045;-78
2024/03/19 06:23:30;;;;;;;6.50;3.40;;;4.40;95.30;;;;;;5031485;28;20033;-77
2024/03/19 06:25:59;;;;;;;14.02;5.28;;;4.30;95.00;;;;;;5022076;28;20054;-78
2024/03/19 06:28:27;;;;;;;11.30;4.45;;;4.40;95.50;;;;;;5001813;28;20042;-78
2024/03/19 06:30:55;;;;;;;8.77;4.32;;;4.50;95.20;;;;;;5034498;28;20095;-77
2024/03/19 06:33:22;;;;;;;9.02;3.60;;;4.40;95.10;;;;;;5023463;28;20076;-78
2024/03/19 06:35:51;;;;;;;14.75;3.58;;;4.50;95.00;;;;;;5025780;28;20041;-78
2024/03/19 06:38:18;;;;;;;9.00;3.38;;;4.50;95.10;;;;;;5001433;28;20506;-78
2024/03/19 06:40:46;;;;;;;8.75;2.70;;;4.50;94.50;;;;;;5024226;28;20051;-78
2024/03/19 06:43:15;;;;;;;7.78;2.97;;;4.50;94.70;;;;;;5002912;28;20038;-77
2024/03/19 06:45:42;;;;;;;9.18;3.28;;;4.50;94.50;;;;;;5019195;28;20115;-77
2024/03/19 06:48:10;;;;;;;7.70;3.60;;;4.50;94.40;;;;;;5019757;28;20052;-79
2024/03/19 06:50:37;;;;;;;8.18;2.92;;;4.50;94.30;;;;;;5027086;28;20072;-80
2024/03/19 06:53:05;;;;;;;7.85;2.80;;;4.50;94.20;;;;;;5013951;28;20048;-80
2024/03/19 06:55:32;;;;;;;7.80;3.47;;;4.50;94.40;;;;;;5021064;28;21168;-78
2024/03/19 06:58:00;;;;;;;11.25;3.40;;;4.50;94.20;;;;;;5023347;28;20549;-78
2024/03/19 07:00:29;;;;;;;6.38;3.08;;;4.60;94.50;;;;;;5033939;28;20090;-77
2024/03/19 07:02:57;;;;;;;9.65;3.25;;;4.60;94.20;;;;;;5017384;28;20571;-77
2024/03/19 07:05:24;;;;;;;8.10;2.85;;;4.60;94.10;;;;;;5020470;28;20075;-76
2024/03/19 07:07:54;;;;;;;9.23;2.83;;;4.60;94.40;;;;;;5022023;28;20480;-77
2024/03/19 07:10:24;;;;;;;10.00;4.00;;;4.70;94.70;;;;;;5020885;28;20038;-78
2024/03/19 07:12:52;;;;;;;10.10;4.43;;;4.60;94.30;;;;;;5004156;28;20049;-78
2024/03/19 07:15:20;;;;;;;10.48;2.85;;;4.60;94.30;;;;;;5013014;28;20538;-79
2024/03/19 07:17:51;;;;;;;9.05;2.85;;;4.70;94.70;;;;;;5022255;28;20523;-77
2024/03/19 07:20:19;;;;;;;8.38;3.85;;;4.80;94.50;;;;;;5007378;28;20052;-78
2024/03/19 07:22:49;;;;;;;8.13;3.58;;;4.80;94.30;;;;;;5025031;28;20162;-78
2024/03/19 07:25:17;;;;;;;8.73;4.18;;;4.90;94.10;;;;;;5036650;28;20049;-78
2024/03/19 07:27:44;;;;;;;7.95;3.85;;;5.00;94.40;;;;;;5012724;28;20057;-78
2024/03/19 07:30:13;;;;;;;9.10;3.90;;;5.00;93.40;;;;;;5014618;28;20041;-77
2024/03/19 07:32:42;;;;;;;9.85;4.13;;;5.10;93.10;;;;;;5009286;28;20088;-77
2024/03/19 07:35:11;;;;;;;10.00;3.55;;;5.10;92.80;;;;;;5024711;28;20519;-77
2024/03/19 07:37:40;;;;;;;10.23;4.18;;;5.10;92.90;;;;;;5004492;28;20417;-77
2024/03/19 07:40:10;;;;;;;7.40;3.35;;;5.20;92.80;;;;;;5022269;28;20037;-77
2024/03/19 07:42:37;;;;;;;8.75;4.40;;;5.20;92.60;;;;;;5010981;28;20588;-77
2024/03/19 07:45:06;;;;;;;8.95;3.72;;;5.20;92.20;;;;;;5006845;28;20052;-77
2024/03/19 07:47:34;;;;;;;9.05;4.47;;;5.20;92.20;;;;;;5021760;28;20488;-77
2024/03/19 07:50:01;;;;;;;8.02;3.30;;;5.30;91.70;;;;;;5022844;28;20060;-77
2024/03/19 07:52:31;;;;;;;9.18;3.25;;;5.30;91.80;;;;;;5020507;28;20083;-78
2024/03/19 07:54:58;;;;;;;20.75;7.68;;;5.40;91.70;;;;;;5018768;28;20037;-77
2024/03/19 07:57:26;;;;;;;12.32;5.28;;;5.40;91.40;;;;;;5010183;28;20049;-77
2024/03/19 07:59:53;;;;;;;15.60;6.43;;;5.30;91.20;;;;;;5005016;28;20503;-78
2024/03/19 08:02:21;;;;;;;14.80;6.03;;;5.50;91.00;;;;;;5041392;28;20080;-77
2024/03/19 08:04:50;;;;;;;11.13;4.18;;;5.40;91.00;;;;;;5024564;28;20048;-77
2024/03/19 08:07:18;;;;;;;11.23;3.78;;;5.50;91.00;;;;;;5009401;28;20041;-75
2024/03/19 08:09:48;;;;;;;10.25;3.20;;;5.60;90.70;;;;;;5018718;28;20056;-75
2024/03/19 08:12:15;;;;;;;9.00;3.22;;;5.60;90.40;;;;;;5026728;28;20072;-75
2024/03/19 08:14:43;;;;;;;11.30;3.60;;;5.70;90.60;;;;;;5022276;28;20112;-75
2024/03/19 08:17:11;;;;;;;9.35;3.50;;;5.80;90.00;;;;;;5028352;28;20037;-74
2024/03/19 08:19:38;;;;;;;7.78;3.63;;;5.90;90.10;;;;;;5022756;28;20398;-75
2024/03/19 08:22:06;;;;;;;10.50;3.78;;;5.90;90.00;;;;;;5037265;28;20033;-75
2024/03/19 08:24:33;;;;;;;8.90;4.20;;;5.80;89.10;;;;;;5010571;28;20405;-74
2024/03/19 08:27:02;;;;;;;11.00;3.80;;;5.90;89.60;;;;;;5027935;28;20161;-74
2024/03/19 08:29:30;;;;;;;7.85;3.63;;;5.90;89.00;;;;;;5021564;28;20052;-74
2024/03/19 08:31:57;;;;;;;7.40;3.45;;;6.00;89.00;;;;;;5023981;28;20045;-74
2024/03/19 08:34:25;;;;;;;8.77;2.80;;;6.10;88.10;;;;;;5028396;28;20522;-74
2024/03/19 08:36:52;;;;;;;8.05;3.85;;;6.10;87.40;;;;;;5011378;28;20407;-74
2024/03/19 08:39:20;;;;;;;9.20;3.60;;;6.30;87.50;;;;;;5016852;28;20480;-74
2024/03/19 08:41:47;;;;;;;8.85;4.03;;;6.10;86.20;;;;;;5013649;28;20045;-74
2024/03/19 08:44:16;;;;;;;10.80;3.95;;;6.30;86.80;;;;;;5044652;28;20487;-74
2024/03/19 08:46:43;;;;;;;9.68;3.78;;;6.50;86.60;;;;;;5005856;28;20040;-74
2024/03/19 08:49:11;;;;;;;6.57;3.15;;;6.40;85.80;;;;;;5021270;28;20094;-73
2024/03/19 08:51:38;;;;;;;6.82;2.88;;;6.60;84.70;;;;;;5014271;28;20399;-74
2024/03/19 08:54:06;;;;;;;7.25;3.08;;;6.70;83.70;;;;;;5010792;28;20045;-75
2024/03/19 08:56:35;;;;;;;7.28;3.63;;;6.80;84.70;;;;;;5024721;28;20038;-74
2024/03/19 08:59:03;;;;;;;7.68;2.75;;;6.80;84.20;;;;;;5026047;28;20055;-75
2024/03/19 09:01:31;;;;;;;5.95;3.03;;;6.70;83.70;;;;;;5010958;28;20240;-74
2024/03/19 09:04:00;;;;;;;7.25;2.67;;;6.90;82.70;;;;;;5026592;28;20389;-74
2024/03/19 09:06:27;;;;;;;4.45;2.22;;;7.00;80.90;;;;;;5014107;28;20470;-75
2024/03/19 09:08:54;;;;;;;5.45;3.28;;;7.20;80.20;;;;;;5023518;28;20400;-74
2024/03/19 09:11:22;;;;;;;7.05;2.60;;;7.30;80.90;;;;;;5004603;28;20047;-75
2024/03/19 09:13:49;;;;;;;6.80;2.92;;;7.30;80.30;;;;;;5029377;28;20045;-73
2024/03/19 09:16:16;;;;;;;7.00;1.85;;;7.50;80.20;;;;;;5024212;28;20033;-74
2024/03/19 09:18:45;;;;;;;7.95;3.65;;;7.40;79.20;;;;;;5009019;28;20049;-77
2024/03/19 09:21:13;;;;;;;5.68;2.58;;;7.60;79.80;;;;;;5033552;28;20049;-81
2024/03/19 09:23:41;;;;;;;5.72;2.38;;;7.50;80.20;;;;;;5028390;28;20045;-80
2024/03/19 09:26:09;;;;;;;3.22;1.25;;;7.80;79.70;;;;;;5044642;28;20076;-80
2024/03/19 09:28:36;;;;;;;4.00;1.50;;;8.00;76.90;;;;;;5012280;28;20049;-79
2024/03/19 09:31:04;;;;;;;4.75;1.98;;;8.00;75.80;;;;;;5035360;28;20050;-81
2024/03/19 09:33:31;;;;;;;5.30;2.15;;;7.70;75.30;;;;;;5035318;28;20045;-79
2024/03/19 09:36:00;;;;;;;4.15;2.00;;;7.60;75.00;;;;;;5010212;28;20112;-79
2024/03/19 09:38:27;;;;;;;5.68;1.90;;;7.60;75.90;;;;;;5033512;28;20051;-77
2024/03/19 09:41:02;;;;;;;4.50;1.60;;;8.10;76.30;;;;;;5057213;28;20158;-76
2024/03/19 09:43:34;;;;;;;4.07;1.90;;;8.30;76.50;;;;;;5020137;28;20053;-80
2024/03/19 09:46:02;;;;;;;4.50;1.98;;;8.40;75.10;;;;;;5040832;28;20049;-80
2024/03/19 09:48:30;;;;;;;4.22;1.40;;;8.50;74.80;;;;;;5040275;28;20045;-77
2024/03/19 09:50:59;;;;;;;4.13;1.27;;;8.50;74.80;;;;;;5033716;28;20052;-77
2024/03/19 09:53:30;;;;;;;3.35;1.58;;;8.60;72.10;;;;;;5017588;28;20048;-79
2024/03/19 09:55:58;;;;;;;4.50;1.90;;;8.50;71.90;;;;;;5026689;28;20073;-79
2024/03/19 09:58:27;;;;;;;3.97;1.98;;;8.60;74.80;;;;;;5036753;28;20510;-79
2024/03/19 10:00:55;;;;;;;4.57;2.70;;;8.60;73.50;;;;;;5021113;28;20048;-77
2024/03/19 10:03:22;;;;;;;3.03;1.33;;;8.20;72.00;;;;;;5024006;28;20400;-80
2024/03/19 10:05:50;;;;;;;2.63;1.10;;;8.50;73.10;;;;;;5022098;28;20045;-80
2024/03/19 10:08:18;;;;;;;3.95;1.45;;;8.70;69.70;;;;;;5035884;28;20044;-80
2024/03/19 10:10:47;;;;;;;4.05;1.80;;;8.60;70.40;;;;;;5035134;28;20477;-81
2024/03/19 10:13:15;;;;;;;5.43;1.85;;;8.60;70.60;;;;;;5057720;28;20060;-79
2024/03/19 10:15:42;;;;;;;5.00;1.60;;;8.50;70.70;;;;;;5031751;28;20508;-80
2024/03/19 10:18:11;;;;;;;4.50;2.10;;;8.70;70.80;;;;;;5017509;28;20135;-79
2024/03/19 10:20:39;;;;;;;4.43;2.08;;;8.80;70.60;;;;;;5034475;28;20068;-81
2024/03/19 10:23:08;;;;;;;5.13;1.95;;;8.70;70.50;;;;;;5040939;28;20079;-79
2024/03/19 10:25:38;;;;;;;4.97;1.65;;;8.70;69.20;;;;;;5013431;28;20096;-80
2024/03/19 10:28:06;;;;;;;5.93;2.17;;;8.70;69.20;;;;;;5042439;28;20041;-74
2024/03/19 10:30:34;;;;;;;3.83;1.90;;;8.90;71.90;;;;;;5017449;28;20086;-74
2024/03/19 10:33:07;;;;;;;4.47;2.13;;;9.10;70.70;;;;;;5006537;28;20051;-75
2024/03/19 10:35:34;;;;;;;;;;;8.90;69.60;;;;;;5042093;28;20049;-74
2024/03/19 10:38:03;;;;;;;4.43;1.88;;;9.20;68.90;;;;;;5007791;28;19925;-75
2024/03/19 10:40:34;;;;;;;3.83;2.15;;;9.40;69.70;;;;;;5016649;28;20492;-75
2024/03/19 10:43:04;;;;;;;3.25;1.70;;;9.50;69.10;;;;;;5024042;28;20056;-75
2024/03/19 10:45:34;;;;;;;5.45;1.90;;;9.60;68.80;;;;;;5022049;28;20049;-74
2024/03/19 10:48:03;;;;;;;11.85;4.93;;;9.80;68.90;;;;;;5023718;28;20116;-73
2024/03/19 10:50:30;;;;;;;4.85;2.58;;;9.80;69.60;;;;;;5019981;28;20049;-76
2024/03/19 10:53:02;;;;;;;5.95;2.28;;;9.80;68.90;;;;;;5001914;28;20055;-76
2024/03/19 10:55:32;;;;;;;3.47;2.07;;;9.10;67.70;;;;;;5033354;28;20041;-73
2024/03/19 10:58:01;;;;;;;6.35;2.50;;;8.70;67.70;;;;;;5039018;28;20044;-75
2024/03/19 11:00:30;;;;;;;4.68;2.05;;;8.70;69.10;;;;;;4999364;28;20416;-75
2024/03/19 11:02:59;;;;;;;4.28;2.30;;;8.90;69.20;;;;;;5003206;28;20049;-74
2024/03/19 11:05:27;;;;;;;6.95;2.75;;;8.80;70.00;;;;;;5020491;28;20044;-74
2024/03/19 11:07:57;;;;;;;5.07;2.25;;;8.60;70.30;;;;;;5020430;28;20094;-73
2024/03/19 11:10:30;;;;;;;8.75;3.25;;;8.50;70.50;;;;;;5004999;28;20056;-74
2024/03/19 11:13:06;;;;;;;5.78;2.55;;;8.50;71.40;;;;;;5036500;28;20033;-74
2024/03/19 11:15:35;;;;;;;5.30;2.33;;;8.40;71.40;;;;;;5010255;28;20046;-73
2024/03/19 11:18:06;;;;;;;8.00;3.17;;;8.50;72.20;;;;;;5020502;28;20037;-74
2024/03/19 11:20:35;;;;;;;7.40;3.53;;;8.70;72.40;;;;;;5018491;28;20049;-73
2024/03/19 11:23:07;;;;;;;5.43;2.63;;;9.20;71.20;;;;;;5010994;28;20385;-74
2024/03/19 11:25:34;;;;;;;5.88;2.65;;;9.30;70.10;;;;;;5037429;28;20045;-74
2024/03/19 11:28:01;;;;;;;5.72;2.65;;;9.40;70.70;;;;;;5023480;28;20037;-74
2024/03/19 11:30:29;;;;;;;5.68;2.38;;;9.30;70.80;;;;;;5002368;28;20049;-74
2024/03/19 11:32:59;;;;;;;5.32;2.67;;;9.10;70.40;;;;;;5018477;28;20037;-75
2024/03/19 11:35:26;;;;;;;5.35;2.65;;;8.80;70.00;;;;;;5017598;28;20049;-74
2024/03/19 11:37:54;;;;;;;6.32;2.58;;;8.70;70.50;;;;;;5034709;28;20411;-74
2024/03/19 11:40:24;;;;;;;4.25;2.55;;;8.80;70.50;;;;;;5039248;28;20045;-74
2024/03/19 11:42:53;;;;;;;5.68;2.60;;;8.60;70.60;;;;;;5025476;28;20509;-74
2024/03/19 11:45:20;;;;;;;6.47;3.05;;;8.60;70.70;;;;;;5010861;28;20033;-75
2024/03/19 11:47:48;;;;;;;4.47;2.40;;;8.50;70.40;;;;;;5007071;28;20403;-75
2024/03/19 11:50:18;;;;;;;6.35;2.50;;;8.70;71.30;;;;;;5003053;28;20468;-74
2024/03/19 11:52:47;;;;;;;4.90;2.63;;;8.90;71.50;;;;;;5029499;28;20052;-75
2024/03/19 11:55:16;;;;;;;5.43;2.55;;;9.20;72.00;;;;;;5019332;28;21424;-75
2024/03/19 11:57:43;;;;;;;4.63;2.65;;;9.30;71.40;;;;;;5022329;28;20072;-76
2024/03/19 12:00:14;;;;;;;5.00;2.95;;;8.70;71.40;;;;;;5027124;28;20063;-75
2024/03/19 12:02:43;;;;;;;6.45;3.33;;;8.50;72.60;;;;;;5007550;28;20041;-75
2024/03/19 12:05:15;;;;;;;8.52;3.42;;;8.30;73.30;;;;;;5028646;28;20045;-75
2024/03/19 12:07:50;;;;;;;7.18;3.53;;;8.10;72.70;;;;;;5028731;28;20042;-77
2024/03/19 12:10:22;;;;;;;6.55;3.25;;;8.20;73.60;;;;;;5026769;28;20044;-75
2024/03/19 12:12:51;;;;;;;8.45;3.15;;;8.70;73.20;;;;;;5016974;28;20048;-75
2024/03/19 12:15:20;;;;;;;5.78;2.80;;;9.30;72.70;;;;;;5006579;28;20042;-75
2024/03/19 12:17:48;;;;;;;5.80;2.53;;;9.50;70.10;;;;;;5013469;28;20049;-76
2024/03/19 12:20:17;;;;;;;4.57;2.10;;;9.50;69.40;;;;;;5028469;28;20048;-75
2024/03/19 12:22:48;;;;;;;4.05;2.03;;;9.40;68.50;;;;;;5042555;28;20048;-74
2024/03/19 12:25:17;;;;;;;4.90;2.38;;;9.30;67.60;;;;;;5028711;28;20057;-75
2024/03/19 12:27:45;;;;;;;4.60;2.80;;;9.60;67.70;;;;;;5029864;28;20080;-75
2024/03/19 12:30:16;;;;;;;5.22;2.85;;;9.40;66.20;;;;;;5024452;28;20091;-75
2024/03/19 12:32:48;;;;;;;4.13;2.33;;;9.60;66.50;;;;;;5030071;28;20107;-75
2024/03/19 12:35:16;;;;;;;5.55;3.05;;;9.90;65.40;;;;;;5022384;28;20060;-75
2024/03/19 12:37:44;;;;;;;5.60;2.72;;;9.80;65.30;;;;;;5015857;28;20072;-75
2024/03/19 12:40:18;;;;;;;5.72;2.47;;;9.80;64.50;;;;;;5021524;28;20504;-74
2024/03/19 12:42:48;;;;;;;5.88;3.38;;;10.00;65.80;;;;;;5017501;28;20041;-75
2024/03/19 12:45:17;;;;;;;5.35;2.65;;;10.10;65.20;;;;;;5042570;28;20041;-76
2024/03/19 12:47:45;;;;;;;4.90;2.70;;;10.40;66.50;;;;;;5030389;28;20041;-79
2024/03/19 12:50:13;;;;;;;5.90;2.95;;;10.60;66.10;;;;;;5051502;28;20045;-79
2024/03/19 12:52:41;;;;;;;5.50;2.85;;;10.80;66.90;;;;;;5026811;28;20029;-81
2024/03/19 12:55:10;;;;;;;4.10;2.35;;;10.80;64.70;;;;;;5034887;28;20045;-78
2024/03/19 12:57:39;;;;;;;4.32;2.17;;;10.70;65.80;;;;;;5032083;28;20042;-78
2024/03/19 13:00:10;;;;;;;6.40;2.67;;;10.60;65.10;;;;;;5020964;28;20037;-78